TAP1937 LPPR-LPPT
Flight info
| Callsign | TAP1937 |
|---|---|
| Flight time | 0h 46m |
| Altitude | 23000 |
| Route | MANIK DCT ABRIL DCT XAMAX |
| Aircraft | A320/M-SDE3FGHIRWY/LB1 |
Departure
| Time | 2026-05-03 23:02 |
|---|---|
| Airport | Francisco de Sá Carneiro Airport (LPPR) |
Arrival
| Time | 2026-05-03 23:48 |
|---|---|
| Airport | Lisbon Humberto Delgado Airport (LPPT) |
| Time | Latitude | Longitude | Altitude | Speed | Heading |
|---|---|---|---|---|---|
| 2026-05-03 22:15 | 41.23733 | -8.67262 | 237 ft | 0 kts | 69° |
| 2026-05-03 22:51 | 41.23727 | -8.67283 | 237 ft | 2 kts | 68° |
| 2026-05-03 22:52 | 41.23720 | -8.67304 | 237 ft | 2 kts | 68° |
| 2026-05-03 22:52 | 41.23714 | -8.67325 | 237 ft | 2 kts | 68° |
| 2026-05-03 22:52 | 41.23708 | -8.67347 | 237 ft | 3 kts | 81° |
| 2026-05-03 22:52 | 41.23708 | -8.67370 | 237 ft | 3 kts | 116° |
| 2026-05-03 22:53 | 41.23706 | -8.67369 | 237 ft | 0 kts | 135° |
| 2026-05-03 22:55 | 41.23696 | -8.67358 | 237 ft | 8 kts | 140° |
| 2026-05-03 22:55 | 41.23648 | -8.67336 | 237 ft | 7 kts | 167° |
| 2026-05-03 22:55 | 41.23598 | -8.67333 | 237 ft | 8 kts | 194° |
| 2026-05-03 22:56 | 41.23552 | -8.67363 | 237 ft | 7 kts | 208° |
| 2026-05-03 22:56 | 41.23510 | -8.67388 | 237 ft | 8 kts | 191° |
| 2026-05-03 22:56 | 41.23458 | -8.67379 | 237 ft | 7 kts | 168° |
| 2026-05-03 22:56 | 41.23411 | -8.67367 | 237 ft | 8 kts | 168° |
| 2026-05-03 22:57 | 41.23353 | -8.67379 | 237 ft | 10 kts | 216° |
| 2026-05-03 22:57 | 41.23329 | -8.67452 | 237 ft | 8 kts | 258° |
| 2026-05-03 22:57 | 41.23319 | -8.67517 | 236 ft | 6 kts | 258° |
| 2026-05-03 22:57 | 41.23312 | -8.67564 | 236 ft | 5 kts | 258° |
| 2026-05-03 22:58 | 41.23306 | -8.67599 | 236 ft | 3 kts | 259° |
| 2026-05-03 22:58 | 41.23306 | -8.67603 | 236 ft | 0 kts | 259° |
| 2026-05-03 22:59 | 41.23304 | -8.67617 | 236 ft | 4 kts | 259° |
| 2026-05-03 22:59 | 41.23298 | -8.67654 | 239 ft | 4 kts | 259° |
| 2026-05-03 22:59 | 41.23310 | -8.67716 | 237 ft | 9 kts | 300° |
| 2026-05-03 22:59 | 41.23346 | -8.67744 | 234 ft | 0 kts | 348° |
| 2026-05-03 23:00 | 41.23348 | -8.67744 | 234 ft | 2 kts | 348° |
| 2026-05-03 23:01 | 41.23535 | -8.67794 | 230 ft | 64 kts | 348° |
| 2026-05-03 23:01 | 41.24187 | -8.67964 | 217 ft | 126 kts | 348° |
| 2026-05-03 23:01 | 41.25201 | -8.68233 | 194 ft | 174 kts | 348° |
| 2026-05-03 23:01 | 41.25880 | -8.68427 | 617 ft | 165 kts | 347° |
| 2026-05-03 23:02 | 41.27016 | -8.68785 | 1437 ft | 157 kts | 347° |
| 2026-05-03 23:02 | 41.28000 | -8.69040 | 1929 ft | 159 kts | 347° |
| 2026-05-03 23:02 | 41.29144 | -8.69321 | 2205 ft | 176 kts | 348° |
| 2026-05-03 23:02 | 41.30421 | -8.69641 | 2368 ft | 197 kts | 347° |
| 2026-05-03 23:03 | 41.31847 | -8.70006 | 2510 ft | 220 kts | 347° |
| 2026-05-03 23:03 | 41.33425 | -8.70413 | 2656 ft | 242 kts | 347° |
| 2026-05-03 23:03 | 41.35143 | -8.70854 | 2944 ft | 258 kts | 348° |
| 2026-05-03 23:03 | 41.36925 | -8.71314 | 3430 ft | 263 kts | 347° |
| 2026-05-03 23:04 | 41.38722 | -8.71810 | 3968 ft | 265 kts | 342° |
| 2026-05-03 23:04 | 41.40333 | -8.72970 | 4512 ft | 264 kts | 315° |
| 2026-05-03 23:04 | 41.41390 | -8.74936 | 5037 ft | 263 kts | 290° |
| 2026-05-03 23:04 | 41.41706 | -8.77307 | 5557 ft | 262 kts | 265° |
| 2026-05-03 23:05 | 41.41403 | -8.79693 | 6097 ft | 262 kts | 258° |
| 2026-05-03 23:05 | 41.40891 | -8.82020 | 6609 ft | 263 kts | 242° |
| 2026-05-03 23:05 | 41.39719 | -8.83883 | 7068 ft | 266 kts | 216° |
| 2026-05-03 23:05 | 41.38015 | -8.84836 | 7532 ft | 271 kts | 189° |
| 2026-05-03 23:06 | 41.36144 | -8.84679 | 7974 ft | 276 kts | 171° |
| 2026-05-03 23:06 | 41.34258 | -8.84174 | 8436 ft | 278 kts | 171° |
| 2026-05-03 23:06 | 41.32354 | -8.83656 | 8901 ft | 279 kts | 171° |
| 2026-05-03 23:06 | 41.30442 | -8.83141 | 9351 ft | 281 kts | 171° |
| 2026-05-03 23:07 | 41.28520 | -8.82625 | 9805 ft | 283 kts | 171° |
| 2026-05-03 23:07 | 41.26579 | -8.82106 | 10127 ft | 289 kts | 171° |
| 2026-05-03 23:07 | 41.24582 | -8.81575 | 10247 ft | 300 kts | 171° |
| 2026-05-03 23:07 | 41.22498 | -8.81020 | 10369 ft | 309 kts | 171° |
| 2026-05-03 23:08 | 41.20366 | -8.80457 | 10494 ft | 316 kts | 171° |
| 2026-05-03 23:08 | 41.18185 | -8.79882 | 10662 ft | 321 kts | 171° |
| 2026-05-03 23:08 | 41.15989 | -8.79298 | 10886 ft | 323 kts | 171° |
| 2026-05-03 23:08 | 41.13786 | -8.78712 | 11127 ft | 324 kts | 171° |
| 2026-05-03 23:09 | 41.11564 | -8.78127 | 11362 ft | 325 kts | 171° |
| 2026-05-03 23:09 | 41.09339 | -8.77542 | 11586 ft | 327 kts | 171° |
| 2026-05-03 23:09 | 41.07109 | -8.76956 | 11806 ft | 328 kts | 171° |
| 2026-05-03 23:09 | 41.04879 | -8.76226 | 12030 ft | 331 kts | 165° |
| 2026-05-03 23:10 | 41.02680 | -8.75311 | 12231 ft | 332 kts | 165° |
| 2026-05-03 23:10 | 41.00469 | -8.74402 | 12440 ft | 333 kts | 166° |
| 2026-05-03 23:10 | 40.98253 | -8.73496 | 12638 ft | 335 kts | 166° |
| 2026-05-03 23:10 | 40.96020 | -8.72585 | 12847 ft | 336 kts | 166° |
| 2026-05-03 23:11 | 40.93819 | -8.71683 | 13157 ft | 331 kts | 166° |
| 2026-05-03 23:11 | 40.91666 | -8.70790 | 14109 ft | 307 kts | 166° |
| 2026-05-03 23:11 | 40.89697 | -8.69969 | 14825 ft | 283 kts | 167° |
| 2026-05-03 23:11 | 40.87816 | -8.69195 | 15086 ft | 290 kts | 167° |
| 2026-05-03 23:12 | 40.85839 | -8.68401 | 15333 ft | 312 kts | 167° |
| 2026-05-03 23:12 | 40.83660 | -8.67529 | 15662 ft | 335 kts | 167° |
| 2026-05-03 23:12 | 40.81364 | -8.66604 | 15879 ft | 352 kts | 167° |
| 2026-05-03 23:12 | 40.79002 | -8.65642 | 16416 ft | 358 kts | 167° |
| 2026-05-03 23:13 | 40.76711 | -8.64700 | 17007 ft | 362 kts | 167° |
| 2026-05-03 23:13 | 40.74296 | -8.63704 | 17651 ft | 365 kts | 167° |
| 2026-05-03 23:13 | 40.71861 | -8.62701 | 18269 ft | 368 kts | 167° |
| 2026-05-03 23:13 | 40.69363 | -8.61761 | 18839 ft | 368 kts | 173° |
| 2026-05-03 23:14 | 40.66835 | -8.61313 | 19390 ft | 367 kts | 179° |
| 2026-05-03 23:14 | 40.64298 | -8.61014 | 19977 ft | 368 kts | 180° |
| 2026-05-03 23:14 | 40.61744 | -8.60710 | 20604 ft | 368 kts | 180° |
| 2026-05-03 23:14 | 40.59186 | -8.60401 | 21238 ft | 369 kts | 180° |
| 2026-05-03 23:15 | 40.56631 | -8.60090 | 21888 ft | 369 kts | 180° |
| 2026-05-03 23:15 | 40.54100 | -8.59782 | 22547 ft | 368 kts | 180° |
| 2026-05-03 23:15 | 40.51528 | -8.59473 | 22975 ft | 375 kts | 180° |
| 2026-05-03 23:15 | 40.48915 | -8.59161 | 23066 ft | 374 kts | 180° |
| 2026-05-03 23:16 | 40.46355 | -8.58845 | 23082 ft | 366 kts | 180° |
| 2026-05-03 23:16 | 40.43802 | -8.58530 | 23077 ft | 364 kts | 181° |
| 2026-05-03 23:16 | 40.41243 | -8.58219 | 23082 ft | 363 kts | 181° |
| 2026-05-03 23:16 | 40.38722 | -8.57918 | 23079 ft | 363 kts | 181° |
| 2026-05-03 23:17 | 40.36210 | -8.57617 | 23082 ft | 363 kts | 181° |
| 2026-05-03 23:17 | 40.33707 | -8.57318 | 23081 ft | 362 kts | 181° |
| 2026-05-03 23:17 | 40.31165 | -8.57012 | 23081 ft | 362 kts | 181° |
| 2026-05-03 23:17 | 40.28650 | -8.56709 | 23080 ft | 362 kts | 181° |
| 2026-05-03 23:18 | 40.26144 | -8.56407 | 23084 ft | 362 kts | 181° |
| 2026-05-03 23:18 | 40.23641 | -8.56106 | 23086 ft | 362 kts | 181° |
| 2026-05-03 23:18 | 40.21135 | -8.55802 | 23082 ft | 362 kts | 181° |
| 2026-05-03 23:18 | 40.18631 | -8.55496 | 23081 ft | 362 kts | 181° |
| 2026-05-03 23:19 | 40.16122 | -8.55191 | 23084 ft | 361 kts | 181° |
| 2026-05-03 23:19 | 40.13623 | -8.54891 | 23080 ft | 361 kts | 181° |
| 2026-05-03 23:19 | 40.11114 | -8.54588 | 23079 ft | 361 kts | 181° |
| 2026-05-03 23:19 | 40.08616 | -8.54287 | 23075 ft | 361 kts | 181° |
| 2026-05-03 23:20 | 40.06116 | -8.53988 | 23077 ft | 361 kts | 181° |
| 2026-05-03 23:20 | 40.03618 | -8.53689 | 23075 ft | 361 kts | 181° |
| 2026-05-03 23:20 | 40.01118 | -8.53414 | 23074 ft | 360 kts | 182° |
| 2026-05-03 23:20 | 39.98613 | -8.53191 | 23067 ft | 359 kts | 183° |
| 2026-05-03 23:21 | 39.96150 | -8.53000 | 23069 ft | 360 kts | 183° |
| 2026-05-03 23:21 | 39.93618 | -8.52810 | 23067 ft | 359 kts | 183° |
| 2026-05-03 23:21 | 39.91124 | -8.52647 | 23064 ft | 357 kts | 187° |
| 2026-05-03 23:21 | 39.88716 | -8.53139 | 23063 ft | 346 kts | 204° |
| 2026-05-03 23:22 | 39.84579 | -8.56125 | 23064 ft | 340 kts | 215° |
| 2026-05-03 23:22 | 39.82570 | -8.57755 | 23063 ft | 340 kts | 215° |
| 2026-05-03 23:22 | 39.80561 | -8.59386 | 23060 ft | 340 kts | 215° |
| 2026-05-03 23:23 | 39.78554 | -8.61014 | 23062 ft | 341 kts | 215° |
| 2026-05-03 23:23 | 39.76538 | -8.62645 | 23064 ft | 341 kts | 215° |
| 2026-05-03 23:23 | 39.74529 | -8.64268 | 23064 ft | 341 kts | 215° |
| 2026-05-03 23:23 | 39.72530 | -8.65881 | 23065 ft | 341 kts | 215° |
| 2026-05-03 23:24 | 39.70508 | -8.67512 | 23072 ft | 341 kts | 215° |
| 2026-05-03 23:24 | 39.68465 | -8.69160 | 23071 ft | 341 kts | 215° |
| 2026-05-03 23:24 | 39.66477 | -8.70759 | 23072 ft | 341 kts | 215° |
| 2026-05-03 23:24 | 39.64439 | -8.72397 | 23071 ft | 341 kts | 215° |
| 2026-05-03 23:25 | 39.62391 | -8.74045 | 23073 ft | 341 kts | 215° |
| 2026-05-03 23:25 | 39.60428 | -8.75624 | 23075 ft | 341 kts | 215° |
| 2026-05-03 23:25 | 39.58411 | -8.77246 | 23074 ft | 341 kts | 215° |
| 2026-05-03 23:25 | 39.56391 | -8.78867 | 23075 ft | 341 kts | 215° |
| 2026-05-03 23:26 | 39.54370 | -8.80484 | 23083 ft | 341 kts | 215° |
| 2026-05-03 23:26 | 39.52336 | -8.82114 | 23085 ft | 341 kts | 215° |
| 2026-05-03 23:26 | 39.50336 | -8.83716 | 23083 ft | 341 kts | 215° |
| 2026-05-03 23:26 | 39.48312 | -8.85338 | 23092 ft | 341 kts | 215° |
| 2026-05-03 23:27 | 39.46302 | -8.86948 | 23087 ft | 341 kts | 215° |
| 2026-05-03 23:27 | 39.44288 | -8.88560 | 23085 ft | 341 kts | 215° |
| 2026-05-03 23:27 | 39.42272 | -8.90168 | 22959 ft | 337 kts | 215° |
| 2026-05-03 23:27 | 39.40271 | -8.91758 | 22680 ft | 329 kts | 215° |
| 2026-05-03 23:28 | 39.38991 | -8.92774 | 22510 ft | 324 kts | 215° |
| 2026-05-03 23:28 | 39.37091 | -8.94284 | 22243 ft | 320 kts | 215° |
| 2026-05-03 23:28 | 39.35195 | -8.95792 | 21978 ft | 319 kts | 215° |
| 2026-05-03 23:28 | 39.33315 | -8.97293 | 21715 ft | 317 kts | 216° |
| 2026-05-03 23:29 | 39.31439 | -8.98790 | 21464 ft | 317 kts | 216° |
| 2026-05-03 23:29 | 39.29564 | -9.00282 | 21199 ft | 316 kts | 215° |
| 2026-05-03 23:29 | 39.27697 | -9.01765 | 20943 ft | 315 kts | 215° |
| 2026-05-03 23:29 | 39.25832 | -9.03249 | 20687 ft | 314 kts | 215° |
| 2026-05-03 23:30 | 39.23968 | -9.04728 | 20440 ft | 314 kts | 215° |
| 2026-05-03 23:30 | 39.22110 | -9.06199 | 20196 ft | 313 kts | 215° |
| 2026-05-03 23:30 | 39.20259 | -9.07660 | 19946 ft | 312 kts | 215° |
| 2026-05-03 23:30 | 39.18405 | -9.09122 | 19702 ft | 312 kts | 215° |
| 2026-05-03 23:31 | 39.16565 | -9.10576 | 19465 ft | 307 kts | 215° |
| 2026-05-03 23:31 | 39.14758 | -9.12007 | 19129 ft | 304 kts | 215° |
| 2026-05-03 23:31 | 39.12962 | -9.13432 | 18755 ft | 302 kts | 215° |
| 2026-05-03 23:31 | 39.11177 | -9.14846 | 18389 ft | 300 kts | 215° |
| 2026-05-03 23:32 | 39.09483 | -9.16183 | 18011 ft | 299 kts | 215° |
| 2026-05-03 23:32 | 39.07715 | -9.17573 | 17634 ft | 296 kts | 214° |
| 2026-05-03 23:32 | 39.05964 | -9.18949 | 17275 ft | 293 kts | 214° |
| 2026-05-03 23:32 | 39.04232 | -9.20311 | 16923 ft | 291 kts | 214° |
| 2026-05-03 23:33 | 39.02509 | -9.21665 | 16570 ft | 289 kts | 214° |
| 2026-05-03 23:33 | 39.00798 | -9.23014 | 16228 ft | 288 kts | 214° |
| 2026-05-03 23:33 | 38.99076 | -9.24372 | 15876 ft | 287 kts | 214° |
| 2026-05-03 23:33 | 38.97514 | -9.25602 | 15559 ft | 286 kts | 214° |
| 2026-05-03 23:34 | 38.95814 | -9.26943 | 15214 ft | 285 kts | 214° |
| 2026-05-03 23:34 | 38.94122 | -9.28276 | 14872 ft | 284 kts | 214° |
| 2026-05-03 23:34 | 38.92438 | -9.29597 | 14532 ft | 284 kts | 214° |
| 2026-05-03 23:34 | 38.90752 | -9.30920 | 14191 ft | 284 kts | 214° |
| 2026-05-03 23:35 | 38.89063 | -9.32245 | 13841 ft | 284 kts | 214° |
| 2026-05-03 23:35 | 38.87379 | -9.33569 | 13463 ft | 284 kts | 214° |
| 2026-05-03 23:35 | 38.85708 | -9.34881 | 13118 ft | 283 kts | 214° |
| 2026-05-03 23:35 | 38.84030 | -9.36194 | 12769 ft | 281 kts | 214° |
| 2026-05-03 23:36 | 38.82352 | -9.37503 | 12429 ft | 280 kts | 214° |
| 2026-05-03 23:36 | 38.80703 | -9.38788 | 12076 ft | 279 kts | 214° |
| 2026-05-03 23:36 | 38.79048 | -9.40079 | 11724 ft | 278 kts | 214° |
| 2026-05-03 23:36 | 38.77399 | -9.41368 | 11377 ft | 277 kts | 214° |
| 2026-05-03 23:37 | 38.75753 | -9.42652 | 11020 ft | 277 kts | 214° |
| 2026-05-03 23:37 | 38.74116 | -9.43929 | 10664 ft | 276 kts | 214° |
| 2026-05-03 23:37 | 38.72478 | -9.45205 | 10311 ft | 275 kts | 213° |
| 2026-05-03 23:37 | 38.70844 | -9.46478 | 9937 ft | 275 kts | 213° |
| 2026-05-03 23:38 | 38.69211 | -9.47752 | 9548 ft | 274 kts | 213° |
| 2026-05-03 23:38 | 38.67590 | -9.49016 | 9170 ft | 272 kts | 213° |
| 2026-05-03 23:38 | 38.65975 | -9.50274 | 8797 ft | 271 kts | 213° |
| 2026-05-03 23:38 | 38.64372 | -9.51517 | 8424 ft | 269 kts | 213° |
| 2026-05-03 23:39 | 38.62800 | -9.52732 | 8268 ft | 258 kts | 213° |
| 2026-05-03 23:39 | 38.61288 | -9.53878 | 8062 ft | 251 kts | 209° |
| 2026-05-03 23:39 | 38.59547 | -9.54457 | 7312 ft | 270 kts | 181° |
| 2026-05-03 23:39 | 38.57989 | -9.54037 | 6923 ft | 276 kts | 156° |
| 2026-05-03 23:40 | 38.56477 | -9.52552 | 6565 ft | 276 kts | 128° |
| 2026-05-03 23:40 | 38.55700 | -9.50351 | 6217 ft | 273 kts | 98° |
| 2026-05-03 23:40 | 38.55728 | -9.47932 | 5878 ft | 268 kts | 84° |
| 2026-05-03 23:40 | 38.55879 | -9.45644 | 5786 ft | 254 kts | 84° |
| 2026-05-03 23:41 | 38.56020 | -9.43440 | 5729 ft | 255 kts | 84° |
| 2026-05-03 23:41 | 38.56164 | -9.41139 | 5647 ft | 267 kts | 84° |
| 2026-05-03 23:41 | 38.56311 | -9.38750 | 5546 ft | 265 kts | 85° |
| 2026-05-03 23:41 | 38.56450 | -9.36501 | 5454 ft | 247 kts | 84° |
| 2026-05-03 23:42 | 38.56585 | -9.34320 | 5370 ft | 242 kts | 84° |
| 2026-05-03 23:42 | 38.56719 | -9.32190 | 5283 ft | 240 kts | 83° |
| 2026-05-03 23:42 | 38.57140 | -9.30173 | 5119 ft | 232 kts | 66° |
| 2026-05-03 23:42 | 38.57750 | -9.28265 | 4746 ft | 229 kts | 66° |
| 2026-05-03 23:43 | 38.58345 | -9.26413 | 4422 ft | 221 kts | 65° |
| 2026-05-03 23:43 | 38.58989 | -9.24674 | 4137 ft | 212 kts | 52° |
| 2026-05-03 23:43 | 38.60002 | -9.23369 | 3888 ft | 205 kts | 30° |
| 2026-05-03 23:43 | 38.61267 | -9.22586 | 3663 ft | 199 kts | 19° |
| 2026-05-03 23:44 | 38.62539 | -9.21911 | 3380 ft | 196 kts | 19° |
| 2026-05-03 23:44 | 38.63784 | -9.21249 | 3107 ft | 192 kts | 19° |
| 2026-05-03 23:44 | 38.65001 | -9.20601 | 2847 ft | 188 kts | 19° |
| 2026-05-03 23:44 | 38.66112 | -9.20008 | 2615 ft | 178 kts | 19° |
| 2026-05-03 23:45 | 38.67213 | -9.19421 | 2382 ft | 165 kts | 19° |
| 2026-05-03 23:45 | 38.68234 | -9.18877 | 2176 ft | 153 kts | 19° |
| 2026-05-03 23:45 | 38.69180 | -9.18372 | 1973 ft | 144 kts | 18° |
| 2026-05-03 23:45 | 38.70094 | -9.17885 | 1782 ft | 141 kts | 18° |
| 2026-05-03 23:46 | 38.70993 | -9.17405 | 1577 ft | 139 kts | 19° |
| 2026-05-03 23:46 | 38.71878 | -9.16932 | 1397 ft | 138 kts | 19° |
| 2026-05-03 23:46 | 38.72786 | -9.16448 | 1222 ft | 139 kts | 20° |
| 2026-05-03 23:46 | 38.73668 | -9.15977 | 1026 ft | 139 kts | 20° |
| 2026-05-03 23:47 | 38.74569 | -9.15496 | 839 ft | 139 kts | 20° |
| 2026-05-03 23:47 | 38.75460 | -9.15019 | 663 ft | 138 kts | 20° |
| 2026-05-03 23:47 | 38.76348 | -9.14543 | 460 ft | 138 kts | 19° |
| 2026-05-03 23:47 | 38.77216 | -9.14081 | 360 ft | 126 kts | 19° |
| 2026-05-03 23:48 | 38.77861 | -9.13738 | 357 ft | 83 kts | 22° |
| 2026-05-03 23:48 | 38.78220 | -9.13534 | 357 ft | 32 kts | 38° |
| 2026-05-03 23:48 | 38.78355 | -9.13378 | 353 ft | 19 kts | 47° |
| 2026-05-03 23:48 | 38.78341 | -9.13265 | 354 ft | 14 kts | 167° |
| 2026-05-03 23:49 | 38.78256 | -9.13299 | 359 ft | 12 kts | 202° |
| 2026-05-03 23:49 | 38.78185 | -9.13336 | 357 ft | 10 kts | 203° |
| 2026-05-03 23:49 | 38.78102 | -9.13381 | 352 ft | 15 kts | 202° |
| 2026-05-03 23:49 | 38.78005 | -9.13411 | 352 ft | 16 kts | 172° |
| 2026-05-03 23:50 | 38.77919 | -9.13388 | 356 ft | 11 kts | 168° |
| 2026-05-03 23:50 | 38.77872 | -9.13375 | 352 ft | 10 kts | 168° |
| 2026-05-03 23:50 | 38.77770 | -9.13349 | 354 ft | 12 kts | 168° |
| 2026-05-03 23:50 | 38.77694 | -9.13330 | 353 ft | 11 kts | 169° |
| 2026-05-03 23:51 | 38.77617 | -9.13321 | 352 ft | 11 kts | 179° |
| 2026-05-03 23:51 | 38.77548 | -9.13312 | 351 ft | 10 kts | 168° |
| 2026-05-03 23:51 | 38.77484 | -9.13295 | 358 ft | 9 kts | 168° |
| 2026-05-03 23:51 | 38.77410 | -9.13275 | 351 ft | 12 kts | 168° |
| 2026-05-03 23:52 | 38.77327 | -9.13256 | 351 ft | 12 kts | 169° |
| 2026-05-03 23:52 | 38.77249 | -9.13237 | 351 ft | 10 kts | 168° |
| 2026-05-03 23:52 | 38.77175 | -9.13219 | 356 ft | 12 kts | 170° |
| 2026-05-03 23:52 | 38.77101 | -9.13199 | 355 ft | 10 kts | 167° |
| 2026-05-03 23:53 | 38.77025 | -9.13177 | 351 ft | 14 kts | 168° |
| 2026-05-03 23:53 | 38.76934 | -9.13142 | 355 ft | 8 kts | 133° |
| 2026-05-03 23:53 | 38.76935 | -9.13087 | 359 ft | 2 kts | 78° |
| 2026-05-03 23:53 | 38.76938 | -9.13067 | 353 ft | 0 kts | 78° |